Time;durP1;ratioP1;P1;durP2;ratioP2;P2;SDS_P1;SDS_P2;PMS_P1;PMS_P2;Temp;Humidity;BMP_temperature;BMP_pressure;BME280_temperature;BME280_humidity;BME280_pressure;Samples;Min_cycle;Max_cycle;Signal;HPM_P1;HPM_P2
2024/01/21 00:01:32;;;;;;;9.30;5.97;;;;;;;;;;5060849;28;20031;-82
2024/01/21 00:03:58;;;;;;;8.82;5.68;;;;;;;;;;5055973;28;20956;-81
2024/01/21 00:06:24;;;;;;;7.15;5.38;;;;;;;;;;5053035;28;20040;-83
2024/01/21 00:08:50;;;;;;;9.35;5.88;;;;;;;;;;5055770;28;20394;-83
2024/01/21 00:11:16;;;;;;;8.93;5.60;;;;;;;;;;5074664;28;20040;-81
2024/01/21 00:13:43;;;;;;;9.77;5.97;;;;;;;;;;5058376;28;20036;-83
2024/01/21 00:16:09;;;;;;;12.13;6.93;;;;;;;;;;5056099;28;20040;-81
2024/01/21 00:18:35;;;;;;;7.85;6.00;;;;;;;;;;5066809;28;20037;-79
2024/01/21 00:21:01;;;;;;;10.77;7.00;;;;;;;;;;5070151;28;20067;-79
2024/01/21 00:23:27;;;;;;;13.10;6.63;;;;;;;;;;5055818;28;20099;-80
2024/01/21 00:25:53;;;;;;;7.30;5.80;;;;;;;;;;5072152;28;20039;-78
2024/01/21 00:28:19;;;;;;;11.95;6.03;;;;;;;;;;5068414;28;20036;-81
2024/01/21 00:30:45;;;;;;;7.70;5.50;;;;;;;;;;5074050;28;20052;-81
2024/01/21 00:33:11;;;;;;;9.85;6.57;;;;;;;;;;5074965;28;20054;-76
2024/01/21 00:35:38;;;;;;;9.52;6.32;;;;;;;;;;5058021;28;20047;-80
2024/01/21 00:38:04;;;;;;;13.88;8.45;;;;;;;;;;5071349;28;20036;-80
2024/01/21 00:40:30;;;;;;;13.25;8.95;;;;;;;;;;5054408;28;20055;-80
2024/01/21 00:42:59;;;;;;;12.55;7.30;;;;;;;;;;5072153;28;20069;-76
2024/01/21 00:45:25;;;;;;;12.13;8.25;;;;;;;;;;5050683;28;20479;-82
2024/01/21 00:47:51;;;;;;;12.88;8.38;;;;;;;;;;5066649;28;20456;-80
2024/01/21 00:50:18;;;;;;;12.95;8.50;;;;;;;;;;5071553;28;20044;-78
2024/01/21 00:52:44;;;;;;;9.55;6.00;;;;;;;;;;5068265;28;20380;-79
2024/01/21 00:55:10;;;;;;;15.90;8.63;;;;;;;;;;5064854;28;20091;-76
2024/01/21 00:57:36;;;;;;;12.95;7.68;;;;;;;;;;5036682;28;20118;-74
2024/01/21 01:00:02;;;;;;;12.35;8.48;;;;;;;;;;5056500;28;20036;-75
2024/01/21 01:02:28;;;;;;;11.63;6.95;;;;;;;;;;5056294;28;20315;-75
2024/01/21 01:04:54;;;;;;;10.80;7.50;;;;;;;;;;5048349;28;20150;-74
2024/01/21 01:07:20;;;;;;;10.35;7.07;;;;;;;;;;5070969;28;20047;-77
2024/01/21 01:09:46;;;;;;;10.30;6.90;;;;;;;;;;5039437;28;20484;-74
2024/01/21 01:12:12;;;;;;;11.00;6.70;;;;;;;;;;5037551;28;20483;-74
2024/01/21 01:14:40;;;;;;;14.82;7.60;;;;;;;;;;5054583;28;20044;-75
2024/01/21 01:17:06;;;;;;;10.98;7.20;;;;;;;;;;5057859;28;20119;-74
2024/01/21 01:19:32;;;;;;;9.90;7.07;;;;;;;;;;5054458;28;20040;-74
2024/01/21 01:21:58;;;;;;;8.98;5.60;;;;;;;;;;5062703;28;20047;-75
2024/01/21 01:24:25;;;;;;;9.77;5.55;;;;;;;;;;5036524;28;20088;-74
2024/01/21 01:26:51;;;;;;;10.68;7.13;;;;;;;;;;5055662;28;20050;-73
2024/01/21 01:29:20;;;;;;;10.98;7.50;;;;;;;;;;5092583;28;20076;-75
2024/01/21 01:31:47;;;;;;;9.43;5.90;;;;;;;;;;5056098;28;20029;-74
2024/01/21 01:34:13;;;;;;;10.60;6.70;;;;;;;;;;5038605;28;20557;-74
2024/01/21 01:36:39;;;;;;;10.13;6.72;;;;;;;;;;5057499;28;20076;-75
2024/01/21 01:39:07;;;;;;;9.65;6.55;;;;;;;;;;5038309;28;20032;-74
2024/01/21 01:41:33;;;;;;;7.72;5.32;;;;;;;;;;5055983;28;20065;-74
2024/01/21 01:43:59;;;;;;;9.73;6.30;;;;;;;;;;5070375;28;20498;-74
2024/01/21 01:46:25;;;;;;;8.93;6.13;;;;;;;;;;5070757;28;20036;-74
2024/01/21 01:48:51;;;;;;;10.55;6.88;;;;;;;;;;5054938;28;20054;-75
2024/01/21 01:51:18;;;;;;;8.85;5.70;;;;;;;;;;5074830;28;20040;-74
2024/01/21 01:53:44;;;;;;;8.88;6.05;;;;;;;;;;5057438;28;20549;-74
2024/01/21 01:56:11;;;;;;;9.05;6.43;;;;;;;;;;5057656;28;20047;-76
2024/01/21 01:58:38;;;;;;;10.25;5.30;;;;;;;;;;5054621;28;20185;-74
2024/01/21 02:01:04;;;;;;;10.63;6.20;;;;;;;;;;5070834;28;20071;-74
2024/01/21 02:03:31;;;;;;;8.05;5.03;;;;;;;;;;5073354;28;20097;-75
2024/01/21 02:05:57;;;;;;;13.10;6.82;;;;;;;;;;5055668;28;20497;-75
2024/01/21 02:08:23;;;;;;;10.43;6.40;;;;;;;;;;5049505;28;20121;-79
2024/01/21 02:10:49;;;;;;;10.20;6.70;;;;;;;;;;5072638;28;20051;-78
2024/01/21 02:13:15;;;;;;;11.32;5.82;;;;;;;;;;5053103;28;20077;-78
2024/01/21 02:15:42;;;;;;;12.48;6.55;;;;;;;;;;5052461;28;20036;-79
2024/01/21 02:18:09;;;;;;;12.32;7.13;;;;;;;;;;5051395;28;20463;-77
2024/01/21 02:20:35;;;;;;;11.23;6.53;;;;;;;;;;5053913;28;20073;-79
2024/01/21 02:23:04;;;;;;;10.65;6.72;;;;;;;;;;5053417;28;20554;-79
2024/01/21 02:25:30;;;;;;;9.68;5.88;;;;;;;;;;5069026;28;20050;-79
2024/01/21 02:27:56;;;;;;;8.90;5.97;;;;;;;;;;5059567;28;20055;-79
2024/01/21 02:30:22;;;;;;;8.43;5.28;;;;;;;;;;5052249;28;20067;-78
2024/01/21 02:32:48;;;;;;;8.40;5.88;;;;;;;;;;5068497;28;20039;-77
2024/01/21 02:35:14;;;;;;;9.93;5.63;;;;;;;;;;5059831;28;20051;-78
2024/01/21 02:37:41;;;;;;;9.85;4.72;;;;;;;;;;5070239;28;20048;-79
2024/01/21 02:40:07;;;;;;;10.00;5.45;;;;;;;;;;5065916;28;20051;-77
2024/01/21 02:42:33;;;;;;;7.90;4.65;;;;;;;;;;5064626;28;20097;-78
2024/01/21 02:44:59;;;;;;;6.45;4.10;;;;;;;;;;5050491;28;20487;-79
2024/01/21 02:47:25;;;;;;;6.68;4.15;;;;;;;;;;5051078;28;20383;-79
2024/01/21 02:49:52;;;;;;;6.78;4.28;;;;;;;;;;5046799;28;20094;-79
2024/01/21 02:52:18;;;;;;;7.18;4.65;;;;;;;;;;5047860;28;20491;-79
2024/01/21 02:54:44;;;;;;;6.95;4.45;;;;;;;;;;5071770;28;20438;-79
2024/01/21 02:57:10;;;;;;;7.95;3.78;;;;;;;;;;5068073;28;20040;-79
2024/01/21 02:59:36;;;;;;;7.93;4.57;;;;;;;;;;5034387;28;20372;-77
2024/01/21 03:02:02;;;;;;;13.10;4.35;;;;;;;;;;5042969;28;21522;-77
2024/01/21 03:04:28;;;;;;;6.55;3.80;;;;;;;;;;5050719;28;20070;-78
2024/01/21 03:06:55;;;;;;;6.15;4.07;;;;;;;;;;5050911;28;20028;-78
2024/01/21 03:09:22;;;;;;;6.40;3.65;;;;;;;;;;5052687;28;20043;-77
2024/01/21 03:11:48;;;;;;;7.38;4.50;;;;;;;;;;5047953;28;20513;-78
2024/01/21 03:14:14;;;;;;;5.45;3.80;;;;;;;;;;5052840;28;20036;-79
2024/01/21 03:16:40;;;;;;;5.25;3.92;;;;;;;;;;5065946;28;20577;-80
2024/01/21 03:19:06;;;;;;;4.30;3.47;;;;;;;;;;5066482;28;20046;-74
2024/01/21 03:21:32;;;;;;;5.05;3.38;;;;;;;;;;5032804;28;20044;-74
2024/01/21 03:23:58;;;;;;;6.40;3.13;;;;;;;;;;5067994;28;21356;-74
2024/01/21 03:26:24;;;;;;;5.50;2.90;;;;;;;;;;5033010;28;20044;-75
2024/01/21 03:28:50;;;;;;;5.78;3.63;;;;;;;;;;5051450;28;20031;-73
2024/01/21 03:31:19;;;;;;;4.65;3.45;;;;;;;;;;5065983;28;20052;-75
2024/01/21 03:33:45;;;;;;;4.63;3.10;;;;;;;;;;5051328;28;20050;-74
2024/01/21 03:36:11;;;;;;;5.07;3.20;;;;;;;;;;5050732;28;20106;-74
2024/01/21 03:38:39;;;;;;;6.95;4.15;;;;;;;;;;5065707;28;20097;-73
2024/01/21 03:41:05;;;;;;;5.20;3.67;;;;;;;;;;5033259;28;20032;-74
2024/01/21 03:43:31;;;;;;;5.18;3.65;;;;;;;;;;5061424;28;20123;-74
2024/01/21 03:45:57;;;;;;;5.70;3.60;;;;;;;;;;5068158;28;20040;-73
2024/01/21 03:48:23;;;;;;;4.45;3.38;;;;;;;;;;5053638;28;20040;-74
2024/01/21 03:50:49;;;;;;;4.30;3.33;;;;;;;;;;5071779;28;20047;-74
2024/01/21 03:53:15;;;;;;;6.25;3.67;;;;;;;;;;5052973;28;20081;-74
2024/01/21 03:55:41;;;;;;;4.97;3.63;;;;;;;;;;5047263;28;20958;-75
2024/01/21 03:58:07;;;;;;;6.03;3.13;;;;;;;;;;5051201;28;20507;-74
2024/01/21 04:00:33;;;;;;;4.55;3.30;;;;;;;;;;5047644;28;20036;-74
2024/01/21 04:02:59;;;;;;;4.38;3.17;;;;;;;;;;5047872;28;20036;-74
2024/01/21 04:05:25;;;;;;;6.78;4.05;;;;;;;;;;5054376;28;20131;-73
2024/01/21 04:07:51;;;;;;;5.25;3.08;;;;;;;;;;5051819;28;20040;-74
2024/01/21 04:10:17;;;;;;;6.20;3.50;;;;;;;;;;5062342;28;20089;-74
2024/01/21 04:12:43;;;;;;;6.30;3.55;;;;;;;;;;5065873;28;20040;-72
2024/01/21 04:15:10;;;;;;;5.68;3.55;;;;;;;;;;5065626;28;20044;-73
2024/01/21 04:17:36;;;;;;;3.67;2.67;;;;;;;;;;5051019;28;20036;-74
2024/01/21 04:20:02;;;;;;;4.35;3.15;;;;;;;;;;5068877;28;20385;-74
2024/01/21 04:22:28;;;;;;;4.00;3.10;;;;;;;;;;5032321;28;20047;-73
2024/01/21 04:24:55;;;;;;;5.00;2.72;;;;;;;;;;5048712;28;20097;-74
2024/01/21 04:27:21;;;;;;;3.40;2.70;;;;;;;;;;5064456;28;20068;-74
2024/01/21 04:29:47;;;;;;;4.82;3.00;;;;;;;;;;5066562;28;20054;-73
2024/01/21 04:32:13;;;;;;;4.63;2.85;;;;;;;;;;5067650;28;20085;-74
2024/01/21 04:34:39;;;;;;;4.85;3.03;;;;;;;;;;5034817;28;20456;-73
2024/01/21 04:37:05;;;;;;;4.65;2.83;;;;;;;;;;5054895;28;20047;-74
2024/01/21 04:39:31;;;;;;;4.07;2.92;;;;;;;;;;5051539;28;20032;-74
2024/01/21 04:41:57;;;;;;;4.50;2.60;;;;;;;;;;5050136;28;20089;-74
2024/01/21 04:44:24;;;;;;;4.47;2.70;;;;;;;;;;5049650;28;20054;-73
2024/01/21 04:46:50;;;;;;;4.80;2.53;;;;;;;;;;5052912;28;20032;-74
2024/01/21 04:49:17;;;;;;;3.53;2.83;;;;;;;;;;5055490;28;20479;-74
2024/01/21 04:51:43;;;;;;;3.92;2.65;;;;;;;;;;5040768;28;20044;-75
2024/01/21 04:54:10;;;;;;;4.63;2.63;;;;;;;;;;5052850;28;20048;-74
2024/01/21 04:56:36;;;;;;;3.50;2.28;;;;;;;;;;5056896;28;20040;-74
2024/01/21 04:59:02;;;;;;;2.80;2.15;;;;;;;;;;5073835;28;20040;-74
2024/01/21 05:01:28;;;;;;;3.67;2.20;;;;;;;;;;5070148;28;20105;-74
2024/01/21 05:03:54;;;;;;;3.13;2.30;;;;;;;;;;5058304;28;20067;-73
2024/01/21 05:06:20;;;;;;;3.30;2.40;;;;;;;;;;5038617;28;20073;-73
2024/01/21 05:08:47;;;;;;;5.95;2.40;;;;;;;;;;5054665;28;20138;-73
2024/01/21 05:11:14;;;;;;;4.35;2.28;;;;;;;;;;5054956;28;20375;-74
2024/01/21 05:13:40;;;;;;;2.03;1.67;;;;;;;;;;5069161;28;20104;-73
2024/01/21 05:16:06;;;;;;;2.10;1.60;;;;;;;;;;5054685;28;20415;-76
2024/01/21 05:18:32;;;;;;;2.75;1.98;;;;;;;;;;5049689;28;20047;-74
2024/01/21 05:20:58;;;;;;;3.08;2.20;;;;;;;;;;5053367;28;20534;-74
2024/01/21 05:23:24;;;;;;;2.90;2.08;;;;;;;;;;5050389;28;20049;-74
2024/01/21 05:25:52;;;;;;;4.13;2.75;;;;;;;;;;5071705;28;20079;-73
2024/01/21 05:28:18;;;;;;;2.85;1.95;;;;;;;;;;5070827;28;20048;-75
2024/01/21 05:30:45;;;;;;;2.90;1.80;;;;;;;;;;5071591;28;20086;-74
2024/01/21 05:33:11;;;;;;;2.03;1.75;;;;;;;;;;5071925;28;20048;-74
2024/01/21 05:35:37;;;;;;;2.17;1.60;;;;;;;;;;5066968;28;20071;-77
2024/01/21 05:38:03;;;;;;;2.17;1.73;;;;;;;;;;5051076;28;20036;-75
2024/01/21 05:40:29;;;;;;;2.15;1.38;;;;;;;;;;5050071;28;20488;-74
2024/01/21 05:42:56;;;;;;;2.25;1.77;;;;;;;;;;5072410;28;20042;-74
2024/01/21 05:45:22;;;;;;;3.95;1.58;;;;;;;;;;5065564;28;20039;-73
2024/01/21 05:47:49;;;;;;;2.15;1.38;;;;;;;;;;5054957;28;20559;-74
2024/01/21 05:50:15;;;;;;;2.47;1.60;;;;;;;;;;5072079;28;20044;-73
2024/01/21 05:52:41;;;;;;;4.72;1.67;;;;;;;;;;5049211;28;20059;-74
2024/01/21 05:55:07;;;;;;;2.15;1.70;;;;;;;;;;5051184;28;20048;-72
2024/01/21 05:57:33;;;;;;;1.92;1.52;;;;;;;;;;5030825;28;20043;-73
2024/01/21 05:59:59;;;;;;;1.85;1.50;;;;;;;;;;5030112;28;20100;-73
2024/01/21 06:02:25;;;;;;;1.70;1.40;;;;;;;;;;5048171;28;20146;-75
2024/01/21 06:04:51;;;;;;;1.50;1.17;;;;;;;;;;5047174;28;20061;-74
2024/01/21 06:07:18;;;;;;;2.63;1.70;;;;;;;;;;5052600;28;20479;-74
2024/01/21 06:09:46;;;;;;;1.75;1.23;;;;;;;;;;5068168;28;20483;-73
2024/01/21 06:12:12;;;;;;;1.67;1.38;;;;;;;;;;5069910;28;20097;-73
2024/01/21 06:14:38;;;;;;;2.05;1.77;;;;;;;;;;5052451;28;20535;-73
2024/01/21 06:17:04;;;;;;;3.83;1.40;;;;;;;;;;5068646;28;20411;-74
2024/01/21 06:19:30;;;;;;;2.03;1.40;;;;;;;;;;5052998;28;20036;-74
2024/01/21 06:21:56;;;;;;;2.50;1.88;;;;;;;;;;5054355;28;20066;-73
2024/01/21 06:24:22;;;;;;;3.03;1.70;;;;;;;;;;5070916;28;20502;-74
2024/01/21 06:26:51;;;;;;;2.42;1.88;;;;;;;;;;5052979;28;20044;-74
2024/01/21 06:29:17;;;;;;;2.83;1.83;;;;;;;;;;5070553;28;20471;-74
2024/01/21 06:31:44;;;;;;;3.55;2.42;;;;;;;;;;5051391;28;20036;-75
2024/01/21 06:34:10;;;;;;;2.95;2.53;;;;;;;;;;5067007;28;20051;-74
2024/01/21 06:36:36;;;;;;;4.10;2.35;;;;;;;;;;5070903;28;20038;-74
2024/01/21 06:39:03;;;;;;;3.42;2.20;;;;;;;;;;5076501;28;20047;-75
2024/01/21 06:41:29;;;;;;;3.83;2.40;;;;;;;;;;5036673;28;20044;-76
2024/01/21 06:43:55;;;;;;;2.42;2.17;;;;;;;;;;5069672;28;20433;-74
2024/01/21 06:46:21;;;;;;;3.47;2.22;;;;;;;;;;5069257;28;20047;-75
2024/01/21 06:48:47;;;;;;;2.45;1.88;;;;;;;;;;5070259;28;20067;-75
2024/01/21 06:51:31;;;;;;;5.85;2.38;;;;;;;;;;5031690;28;20033;-77
2024/01/21 06:53:58;;;;;;;2.35;2.03;;;;;;;;;;5070251;28;20044;-75
2024/01/21 06:56:25;;;;;;;3.67;2.28;;;;;;;;;;5065381;28;20044;-74
2024/01/21 06:58:51;;;;;;;3.53;2.20;;;;;;;;;;5091050;28;20058;-73
2024/01/21 07:01:18;;;;;;;4.97;3.17;;;;;;;;;;5071403;28;20044;-75
2024/01/21 07:03:45;;;;;;;3.28;2.30;;;;;;;;;;5053719;28;20047;-73
2024/01/21 07:06:11;;;;;;;4.60;3.22;;;;;;;;;;5070249;28;20462;-74
2024/01/21 07:08:38;;;;;;;4.32;2.85;;;;;;;;;;5066126;28;20039;-73
2024/01/21 07:11:10;;;;;;;5.05;3.50;;;;;;;;;;5053684;28;20043;-73
2024/01/21 07:13:37;;;;;;;3.90;2.95;;;;;;;;;;5087634;28;20127;-72
2024/01/21 07:16:03;;;;;;;3.70;2.97;;;;;;;;;;5031387;28;20067;-73
2024/01/21 07:18:29;;;;;;;4.63;3.33;;;;;;;;;;5045665;28;20387;-75
2024/01/21 07:20:55;;;;;;;4.10;3.15;;;;;;;;;;5039954;28;20044;-75
2024/01/21 07:23:22;;;;;;;8.05;3.60;;;;;;;;;;5053783;28;20044;-74
2024/01/21 07:25:48;;;;;;;4.38;3.05;;;;;;;;;;5065118;28;20051;-73
2024/01/21 07:28:15;;;;;;;4.43;3.60;;;;;;;;;;5054827;28;20028;-74
2024/01/21 07:30:41;;;;;;;4.35;3.38;;;;;;;;;;5068174;28;20526;-74
2024/01/21 07:33:08;;;;;;;5.22;3.33;;;;;;;;;;5063413;28;20039;-74
2024/01/21 07:35:34;;;;;;;6.35;3.95;;;;;;;;;;5070918;28;20044;-75
2024/01/21 07:38:00;;;;;;;4.10;3.58;;;;;;;;;;5069259;28;20079;-76
2024/01/21 07:40:27;;;;;;;7.13;3.55;;;;;;;;;;5064783;28;20066;-74
2024/01/21 07:42:53;;;;;;;4.93;3.80;;;;;;;;;;5068199;28;20043;-74
2024/01/21 07:45:19;;;;;;;4.45;3.42;;;;;;;;;;5071006;28;20036;-76
2024/01/21 07:47:45;;;;;;;4.68;2.67;;;;;;;;;;5053498;28;20032;-74
2024/01/21 07:50:11;;;;;;;4.85;3.83;;;;;;;;;;5067205;28;20121;-74
2024/01/21 07:52:37;;;;;;;7.75;4.70;;;;;;;;;;5070635;28;20406;-74
2024/01/21 07:55:03;;;;;;;4.85;3.88;;;;;;;;;;5077081;28;20040;-76
2024/01/21 07:57:29;;;;;;;6.95;3.78;;;;;;;;;;5052980;28;20042;-74
2024/01/21 07:59:56;;;;;;;4.85;3.70;;;;;;;;;;5053682;28;20097;-79
2024/01/21 08:02:26;;;;;;;7.57;4.68;;;;;;;;;;5049494;28;20150;-81
2024/01/21 08:04:52;;;;;;;4.82;3.60;;;;;;;;;;5065966;28;20044;-79
2024/01/21 08:07:18;;;;;;;5.55;4.28;;;;;;;;;;5045791;28;20048;-79
2024/01/21 08:09:45;;;;;;;5.60;4.07;;;;;;;;;;5067000;28;20039;-78
2024/01/21 08:12:11;;;;;;;5.88;3.80;;;;;;;;;;5066901;28;20453;-78
2024/01/21 08:14:37;;;;;;;5.93;3.58;;;;;;;;;;5068663;28;20094;-78
2024/01/21 08:17:03;;;;;;;4.40;2.97;;;;;;;;;;5065014;28;20040;-79
2024/01/21 08:19:29;;;;;;;7.07;4.50;;;;;;;;;;5064280;28;20033;-77
2024/01/21 08:21:56;;;;;;;7.97;4.97;;;;;;;;;;5071251;28;20040;-80
2024/01/21 08:24:23;;;;;;;7.38;4.50;;;;;;;;;;5054011;28;20046;-79
2024/01/21 08:26:49;;;;;;;4.75;3.60;;;;;;;;;;5069667;28;20113;-79
2024/01/21 08:29:15;;;;;;;7.13;5.05;;;;;;;;;;5067990;28;20032;-81
2024/01/21 08:31:42;;;;;;;6.70;4.07;;;;;;;;;;5057118;28;20043;-76
2024/01/21 08:34:09;;;;;;;5.93;4.65;;;;;;;;;;5070673;28;20044;-79
2024/01/21 08:36:35;;;;;;;7.82;4.88;;;;;;;;;;5070016;28;20039;-79
2024/01/21 08:39:01;;;;;;;7.18;4.53;;;;;;;;;;5056361;28;20403;-79
2024/01/21 08:41:27;;;;;;;7.60;4.97;;;;;;;;;;5073349;28;20044;-77
2024/01/21 08:43:53;;;;;;;6.22;4.70;;;;;;;;;;5052025;28;20460;-79
2024/01/21 08:46:19;;;;;;;8.57;5.93;;;;;;;;;;5076526;28;20048;-78
2024/01/21 08:48:45;;;;;;;7.00;4.93;;;;;;;;;;5056733;28;20044;-77
2024/01/21 08:51:12;;;;;;;5.30;3.95;;;;;;;;;;5074510;28;20054;-76
2024/01/21 08:53:38;;;;;;;7.65;5.10;;;;;;;;;;5065495;28;20127;-79
2024/01/21 08:56:04;;;;;;;6.22;4.47;;;;;;;;;;5070798;28;20048;-79
2024/01/21 08:58:30;;;;;;;8.43;4.97;;;;;;;;;;5038027;28;20218;-80
2024/01/21 09:00:56;;;;;;;7.05;4.60;;;;;;;;;;5050331;28;20036;-79
2024/01/21 09:03:22;;;;;;;5.70;3.97;;;;;;;;;;5054294;28;20036;-78
2024/01/21 09:05:48;;;;;;;6.57;3.85;;;;;;;;;;5069832;28;20036;-80
2024/01/21 09:08:14;;;;;;;5.60;3.95;;;;;;;;;;5074467;28;20039;-80
2024/01/21 09:10:43;;;;;;;7.40;5.07;;;;;;;;;;5074436;28;20031;-74
2024/01/21 09:13:09;;;;;;;7.60;4.80;;;;;;;;;;5076372;28;20104;-75
2024/01/21 09:15:35;;;;;;;8.93;4.88;;;;;;;;;;5052035;28;20108;-74
2024/01/21 09:18:02;;;;;;;6.90;4.20;;;;;;;;;;5058535;28;20386;-74
2024/01/21 09:20:28;;;;;;;6.55;4.55;;;;;;;;;;5050554;28;20048;-77
2024/01/21 09:22:54;;;;;;;7.22;4.25;;;;;;;;;;5032838;28;20111;-74
2024/01/21 09:25:20;;;;;;;8.05;5.70;;;;;;;;;;5056245;28;20058;-74
2024/01/21 09:27:46;;;;;;;6.88;4.82;;;;;;;;;;5052571;28;20043;-74
2024/01/21 09:30:12;;;;;;;6.07;3.78;;;;;;;;;;5037776;28;20044;-74
2024/01/21 09:32:38;;;;;;;4.95;3.67;;;;;;;;;;5067315;28;20047;-73
2024/01/21 09:35:05;;;;;;;5.47;3.85;;;;;;;;;;5033406;28;20040;-74
2024/01/21 09:37:31;;;;;;;6.60;4.75;;;;;;;;;;5053103;28;20046;-74
2024/01/21 09:39:57;;;;;;;9.52;4.50;;;;;;;;;;5071404;28;20086;-74
2024/01/21 09:42:23;;;;;;;6.45;4.80;;;;;;;;;;5075358;28;20069;-74
2024/01/21 09:44:49;;;;;;;7.10;4.97;;;;;;;;;;5070340;28;20101;-74
2024/01/21 09:47:16;;;;;;;6.07;4.47;;;;;;;;;;5046744;28;20067;-73
2024/01/21 09:49:43;;;;;;;5.72;3.60;;;;;;;;;;5071157;28;20372;-76
2024/01/21 09:52:09;;;;;;;7.65;4.55;;;;;;;;;;5074441;28;20064;-74
2024/01/21 09:54:35;;;;;;;7.03;4.93;;;;;;;;;;5052688;28;20059;-73
2024/01/21 09:57:02;;;;;;;5.75;3.95;;;;;;;;;;5039990;28;20047;-74
2024/01/21 09:59:28;;;;;;;8.57;6.15;;;;;;;;;;5053560;28;20096;-75
2024/01/21 10:01:54;;;;;;;6.88;4.63;;;;;;;;;;5067226;28;20412;-75
2024/01/21 10:04:22;;;;;;;8.90;5.10;;;;;;;;;;5067855;28;20067;-75
2024/01/21 10:06:52;;;;;;;7.38;4.45;;;;;;;;;;5048174;28;20044;-75
2024/01/21 10:09:22;;;;;;;7.47;5.32;;;;;;;;;;5056989;28;20072;-75
2024/01/21 10:11:50;;;;;;;6.53;4.63;;;;;;;;;;5066088;28;20136;-75
2024/01/21 10:14:16;;;;;;;10.57;4.72;;;;;;;;;;5049462;28;20055;-76
2024/01/21 10:16:43;;;;;;;7.30;4.10;;;;;;;;;;5031766;28;20190;-74
2024/01/21 10:19:14;;;;;;;7.32;5.43;;;;;;;;;;5051329;28;20044;-74
2024/01/21 10:21:40;;;;;;;6.32;4.25;;;;;;;;;;5070093;28;20407;-78
2024/01/21 10:24:10;;;;;;;7.65;5.22;;;;;;;;;;5049935;28;20455;-75
2024/01/21 10:26:37;;;;;;;7.68;4.63;;;;;;;;;;5052595;28;20043;-74
2024/01/21 10:29:03;;;;;;;8.68;5.07;;;;;;;;;;5049294;28;20057;-75
2024/01/21 10:31:32;;;;;;;7.53;5.25;;;;;;;;;;5063072;28;20081;-75
2024/01/21 10:33:58;;;;;;;8.95;5.45;;;;;;;;;;5065517;28;20054;-74
2024/01/21 10:36:26;;;;;;;7.40;5.60;;;;;;;;;;5067696;28;20479;-74
2024/01/21 10:38:53;;;;;;;6.43;4.53;;;;;;;;;;5050421;28;20040;-74
2024/01/21 10:41:30;;;;;;;6.53;4.65;;;;;;;;;;5053198;28;20044;-77
2024/01/21 10:43:57;;;;;;;10.15;5.57;;;;;;;;;;5052393;28;20032;-73
2024/01/21 10:46:25;;;;;;;8.38;5.63;;;;;;;;;;5051689;28;20032;-74
2024/01/21 10:48:53;;;;;;;7.78;5.55;;;;;;;;;;5069395;28;20044;-76
2024/01/21 10:51:19;;;;;;;7.35;4.30;;;;;;;;;;5068040;28;20040;-74
2024/01/21 10:53:45;;;;;;;7.70;4.70;;;;;;;;;;5066523;28;20067;-74
2024/01/21 10:56:12;;;;;;;9.98;6.18;;;;;;;;;;5071661;28;20369;-75
2024/01/21 10:58:38;;;;;;;12.68;6.35;;;;;;;;;;5054868;28;20688;-76
2024/01/21 11:01:04;;;;;;;9.40;5.05;;;;;;;;;;5066600;28;20708;-74
2024/01/21 11:03:33;;;;;;;6.63;4.55;;;;;;;;;;5062997;28;20039;-74
2024/01/21 11:06:03;;;;;;;8.65;6.32;;;;;;;;;;5050251;28;20141;-74
2024/01/21 11:08:29;;;;;;;7.80;5.63;;;;;;;;;;5069661;28;20044;-74
2024/01/21 11:11:08;;;;;;;7.57;5.80;;;;;;;;;;5054414;28;20505;-74
2024/01/21 11:13:43;;;;;;;7.45;5.28;;;;;;;;;;5046176;28;20066;-73
2024/01/21 11:16:11;;;;;;;9.95;5.82;;;;;;;;;;5066233;28;20075;-75
2024/01/21 11:18:37;;;;;;;7.85;4.85;;;;;;;;;;5065600;28;20052;-75
2024/01/21 11:21:03;;;;;;;9.27;6.05;;;;;;;;;;5051431;28;20036;-73
2024/01/21 11:23:30;;;;;;;9.73;5.45;;;;;;;;;;5033373;28;20052;-74
2024/01/21 11:25:56;;;;;;;11.43;5.65;;;;;;;;;;5052194;28;20040;-77
2024/01/21 11:28:29;;;;;;;8.77;6.22;;;;;;;;;;5066379;28;20042;-74
2024/01/21 11:31:02;;;;;;;9.13;6.70;;;;;;;;;;5050644;28;20056;-73
2024/01/21 11:33:29;;;;;;;7.95;5.00;;;;;;;;;;5068166;28;20047;-74
2024/01/21 11:35:58;;;;;;;7.68;4.80;;;;;;;;;;5054698;28;20525;-74
2024/01/21 11:38:24;;;;;;;11.60;5.95;;;;;;;;;;5046310;28;20043;-75
2024/01/21 11:41:01;;;;;;;10.48;5.82;;;;;;;;;;5051770;28;20491;-75
2024/01/21 11:43:28;;;;;;;8.38;5.72;;;;;;;;;;5050187;28;20063;-73
2024/01/21 11:45:54;;;;;;;7.28;4.53;;;;;;;;;;5051800;28;20402;-74
2024/01/21 11:48:26;;;;;;;8.57;6.35;;;;;;;;;;5052228;28;20484;-74
2024/01/21 11:50:52;;;;;;;9.32;5.70;;;;;;;;;;5065617;28;20036;-75
2024/01/21 11:53:18;;;;;;;7.10;5.20;;;;;;;;;;5049324;28;20131;-73
2024/01/21 11:55:46;;;;;;;13.55;6.88;;;;;;;;;;5050049;28;20055;-74
2024/01/21 11:58:12;;;;;;;8.63;5.80;;;;;;;;;;5066425;28;20407;-73
2024/01/21 12:00:39;;;;;;;8.30;5.95;;;;;;;;;;5051997;28;20044;-74
2024/01/21 12:03:05;;;;;;;9.73;5.97;;;;;;;;;;5052684;28;20035;-74
2024/01/21 12:05:31;;;;;;;9.52;6.50;;;;;;;;;;5068299;28;20110;-76
2024/01/21 12:07:58;;;;;;;8.05;5.45;;;;;;;;;;5069161;28;20365;-74
2024/01/21 12:10:24;;;;;;;9.27;6.53;;;;;;;;;;5051145;28;20036;-74
2024/01/21 12:12:50;;;;;;;11.05;6.13;;;;;;;;;;5049053;28;20395;-74
2024/01/21 12:15:17;;;;;;;12.38;6.82;;;;;;;;;;5046571;28;20044;-74
2024/01/21 12:17:52;;;;;;;8.75;5.93;;;;;;;;;;5052348;28;20043;-74
2024/01/21 12:20:18;;;;;;;8.48;5.50;;;;;;;;;;5052723;28;20502;-76
2024/01/21 12:22:45;;;;;;;11.85;6.80;;;;;;;;;;5048251;28;20040;-74
2024/01/21 12:25:11;;;;;;;9.55;6.85;;;;;;;;;;5058770;28;20052;-74
2024/01/21 12:27:41;;;;;;;11.55;6.97;;;;;;;;;;5048085;28;20377;-74
2024/01/21 12:30:14;;;;;;;8.18;6.47;;;;;;;;;;5068393;28;20052;-76
2024/01/21 12:32:49;;;;;;;10.40;6.15;;;;;;;;;;5075980;28;20063;-73
2024/01/21 12:35:15;;;;;;;9.25;6.70;;;;;;;;;;5067645;28;20088;-77
2024/01/21 12:37:42;;;;;;;12.82;7.60;;;;;;;;;;5052647;28;20041;-74
2024/01/21 12:40:08;;;;;;;11.05;7.15;;;;;;;;;;5072664;28;20129;-74
2024/01/21 12:42:35;;;;;;;8.57;6.28;;;;;;;;;;5036471;28;20032;-75
2024/01/21 12:45:01;;;;;;;12.32;6.65;;;;;;;;;;5070652;28;20032;-75
2024/01/21 12:47:27;;;;;;;10.45;6.88;;;;;;;;;;5051684;28;20040;-74
2024/01/21 12:49:53;;;;;;;12.05;8.02;;;;;;;;;;5053388;28;20035;-74
2024/01/21 12:52:19;;;;;;;8.82;6.43;;;;;;;;;;5050974;28;22021;-76
2024/01/21 12:54:45;;;;;;;8.82;5.88;;;;;;;;;;5049326;28;20403;-74
2024/01/21 12:57:11;;;;;;;10.38;5.95;;;;;;;;;;5067014;28;20122;-75
2024/01/21 12:59:37;;;;;;;13.38;7.43;;;;;;;;;;5039662;28;20039;-74
2024/01/21 13:02:04;;;;;;;10.07;6.57;;;;;;;;;;5067539;28;20044;-76
2024/01/21 13:04:30;;;;;;;12.10;8.20;;;;;;;;;;5066778;28;20164;-73
2024/01/21 13:06:56;;;;;;;16.27;8.65;;;;;;;;;;5050285;28;20040;-73
2024/01/21 13:09:22;;;;;;;12.43;6.93;;;;;;;;;;5047526;28;20036;-74
2024/01/21 13:11:48;;;;;;;10.32;7.30;;;;;;;;;;5050093;28;20051;-75
2024/01/21 13:14:14;;;;;;;11.77;7.93;;;;;;;;;;5069909;28;20497;-74
2024/01/21 13:16:40;;;;;;;12.32;7.57;;;;;;;;;;5036249;28;20493;-74
2024/01/21 13:19:06;;;;;;;13.75;7.82;;;;;;;;;;5056193;28;20040;-74
2024/01/21 13:21:32;;;;;;;7.90;5.32;;;;;;;;;;5039581;28;20036;-73
2024/01/21 13:23:58;;;;;;;12.02;7.68;;;;;;;;;;5036553;28;20162;-73
2024/01/21 13:26:25;;;;;;;14.13;8.55;;;;;;;;;;5053954;28;20040;-74
2024/01/21 13:31:37;;;;;;;13.25;9.10;;;;;;;;;;5070399;28;20052;-74
2024/01/21 13:34:06;;;;;;;11.82;8.43;;;;;;;;;;5072057;28;20124;-73
2024/01/21 13:36:34;;;;;;;12.70;7.10;;;;;;;;;;5031013;28;20091;-75
2024/01/21 13:39:00;;;;;;;17.58;9.30;;;;;;;;;;5050014;28;20487;-74
2024/01/21 13:41:26;;;;;;;13.93;8.38;;;;;;;;;;5038971;28;20036;-74
2024/01/21 13:43:52;;;;;;;10.90;7.35;;;;;;;;;;5053651;28;20040;-74
2024/01/21 13:46:18;;;;;;;12.95;8.68;;;;;;;;;;5060042;28;20028;-75
2024/01/21 13:48:46;;;;;;;8.52;6.30;;;;;;;;;;5053870;28;20036;-73
2024/01/21 13:51:12;;;;;;;12.45;7.72;;;;;;;;;;5063182;28;20090;-81
2024/01/21 13:53:38;;;;;;;13.73;9.00;;;;;;;;;;5054576;28;20040;-79
2024/01/21 13:56:05;;;;;;;10.90;8.45;;;;;;;;;;5053024;28;20122;-78
2024/01/21 13:58:31;;;;;;;15.25;8.52;;;;;;;;;;5039052;28;20040;-79
2024/01/21 14:00:57;;;;;;;16.33;8.77;;;;;;;;;;5065172;28;20047;-79
2024/01/21 14:03:23;;;;;;;17.30;9.40;;;;;;;;;;5053722;28;20105;-80
2024/01/21 14:05:49;;;;;;;11.15;7.15;;;;;;;;;;5050636;28;20395;-80
2024/01/21 14:08:15;;;;;;;13.35;8.50;;;;;;;;;;5051881;28;20029;-78
2024/01/21 14:10:41;;;;;;;11.73;7.10;;;;;;;;;;5050131;28;20555;-78
2024/01/21 14:13:07;;;;;;;15.55;8.82;;;;;;;;;;5069261;28;20126;-79
2024/01/21 14:15:34;;;;;;;13.68;7.50;;;;;;;;;;5032653;28;20480;-79
2024/01/21 14:18:02;;;;;;;24.02;9.30;;;;;;;;;;5071986;28;20044;-80
2024/01/21 14:20:28;;;;;;;14.40;9.07;;;;;;;;;;5066794;28;20066;-80
2024/01/21 14:22:54;;;;;;;15.88;10.80;;;;;;;;;;5071178;28;20089;-79
2024/01/21 14:25:20;;;;;;;13.57;7.50;;;;;;;;;;5037833;28;20051;-79
2024/01/21 14:27:47;;;;;;;14.23;8.65;;;;;;;;;;5066617;28;20070;-77
2024/01/21 14:30:17;;;;;;;15.88;9.35;;;;;;;;;;5036052;28;20062;-79
2024/01/21 14:32:43;;;;;;;16.67;10.25;;;;;;;;;;5068520;28;20059;-79
2024/01/21 14:35:09;;;;;;;14.35;8.70;;;;;;;;;;5037282;28;20797;-79
2024/01/21 14:37:35;;;;;;;20.88;11.13;;;;;;;;;;5035761;28;20400;-77